Time;durP1;ratioP1;P1;durP2;ratioP2;P2;SDS_P1;SDS_P2;PMS_P1;PMS_P2;Temp;Humidity;BMP_temperature;BMP_pressure;BME280_temperature;BME280_humidity;BME280_pressure;Samples;Min_cycle;Max_cycle;Signal;HPM_P1;HPM_P2
2021/12/31 00:02:14;;;;;;;4.93;1.90;;;;;;;12.61;100.00;100880.75;5051355;28;20090;-58
2021/12/31 00:04:39;;;;;;;7.38;2.42;;;;;;;12.64;100.00;100887.66;5053783;28;20044;-58
2021/12/31 00:07:04;;;;;;;4.47;2.30;;;;;;;12.60;100.00;100881.69;5053028;28;20981;-58
2021/12/31 00:09:30;;;;;;;3.53;1.67;;;;;;;12.59;100.00;100879.13;5053295;28;20995;-58
2021/12/31 00:11:55;;;;;;;4.35;1.90;;;;;;;12.57;100.00;100870.47;5052838;28;20024;-58
2021/12/31 00:14:21;;;;;;;4.72;2.20;;;;;;;12.56;100.00;100876.66;5053005;28;20138;-58
2021/12/31 00:16:47;;;;;;;4.45;1.80;;;;;;;12.54;100.00;100870.63;5053925;28;20023;-58
2021/12/31 00:19:13;;;;;;;7.72;2.05;;;;;;;12.53;100.00;100869.75;5052978;28;20028;-59
2021/12/31 00:21:41;;;;;;;8.40;2.70;;;;;;;12.52;100.00;100864.56;5052877;28;20042;-58
2021/12/31 00:24:07;;;;;;;9.02;2.30;;;;;;;12.50;100.00;100861.16;5052609;28;20020;-58
2021/12/31 00:26:32;;;;;;;8.13;2.67;;;;;;;12.41;100.00;100840.50;5053262;28;20966;-59
2021/12/31 00:28:57;;;;;;;3.60;1.92;;;;;;;12.61;100.00;100864.06;5053086;28;20085;-58
2021/12/31 00:31:23;;;;;;;3.40;1.83;;;;;;;12.62;100.00;100865.78;5053391;28;20827;-58
2021/12/31 00:33:49;;;;;;;5.13;2.40;;;;;;;12.63;100.00;100863.09;5052934;28;20032;-58
2021/12/31 00:36:15;;;;;;;5.03;1.90;;;;;;;12.66;100.00;100860.28;5051388;28;20070;-58
2021/12/31 00:38:40;;;;;;;4.88;2.10;;;;;;;12.66;100.00;100854.16;5052718;28;20122;-58
2021/12/31 00:41:06;;;;;;;3.08;1.65;;;;;;;12.68;100.00;100863.69;5050730;28;20925;-58
2021/12/31 00:43:31;;;;;;;3.20;1.67;;;;;;;12.71;100.00;100862.66;5064384;28;20028;-58
2021/12/31 00:45:57;;;;;;;9.52;2.15;;;;;;;12.74;100.00;100865.19;5049916;28;20023;-58
2021/12/31 00:48:22;;;;;;;4.32;2.33;;;;;;;12.76;100.00;100858.88;5051086;28;20478;-58
2021/12/31 00:50:47;;;;;;;4.38;2.13;;;;;;;12.74;100.00;100866.00;5050182;28;20146;-58
2021/12/31 00:53:13;;;;;;;5.55;2.13;;;;;;;12.74;100.00;100865.19;5051587;28;20927;-58
2021/12/31 00:55:38;;;;;;;3.90;1.63;;;;;;;12.76;100.00;100873.84;5049309;28;20028;-58
2021/12/31 00:58:06;;;;;;;4.25;2.05;;;;;;;12.75;100.00;100872.13;5049704;28;20829;-58
2021/12/31 01:00:32;;;;;;;7.43;1.98;;;;;;;12.64;100.00;100851.59;5049835;28;20071;-58
2021/12/31 01:02:58;;;;;;;4.53;2.00;;;;;;;12.78;100.00;100871.97;5048486;28;20030;-58
2021/12/31 01:05:23;;;;;;;3.97;1.80;;;;;;;12.74;100.00;100883.63;5048649;28;20032;-58
2021/12/31 01:07:49;;;;;;;7.38;2.47;;;;;;;12.74;100.00;100875.72;5047928;28;20028;-58
2021/12/31 01:10:18;;;;;;;6.13;1.73;;;;;;;12.80;100.00;100878.03;5047648;28;20869;-58
2021/12/31 01:12:43;;;;;;;4.40;1.83;;;;;;;12.82;100.00;100868.25;5047882;28;20131;-58
2021/12/31 01:15:18;;;;;;;5.03;1.67;;;;;;;12.78;100.00;100888.66;5048107;28;20039;-58
2021/12/31 01:20:14;;;;;;;7.65;2.08;;;;;;;12.76;100.00;100884.41;5047780;28;20031;-58
2021/12/31 01:22:39;;;;;;;7.55;2.22;;;;;;;12.67;100.00;100874.34;5048880;28;20136;-58
2021/12/31 01:25:05;;;;;;;4.28;1.92;;;;;;;12.59;100.00;100850.13;5048183;28;20844;-58
2021/12/31 01:27:32;;;;;;;5.75;2.00;;;;;;;12.53;100.00;100842.53;5048922;28;20244;-58
2021/12/31 01:29:57;;;;;;;5.47;1.70;;;;;;;12.72;100.00;100875.78;5047599;28;20889;-58
2021/12/31 01:32:24;;;;;;;5.15;1.90;;;;;;;12.68;100.00;100881.28;5049373;28;20024;-58
2021/12/31 01:34:49;;;;;;;4.72;2.03;;;;;;;12.68;100.00;100870.75;5048365;28;20027;-58
2021/12/31 01:37:14;;;;;;;3.75;1.85;;;;;;;12.71;100.00;100881.13;5048464;28;20030;-58
2021/12/31 01:39:42;;;;;;;10.77;2.38;;;;;;;12.67;100.00;100869.88;5048744;28;20077;-58
2021/12/31 01:42:08;;;;;;;8.73;2.40;;;;;;;12.67;100.00;100863.78;5048198;28;20494;-58
2021/12/31 01:44:38;;;;;;;7.40;2.15;;;;;;;12.69;100.00;100873.31;5048407;28;20052;-57
2021/12/31 01:47:12;;;;;;;12.52;2.72;;;;;;;12.74;100.00;100870.44;5046962;28;20028;-57
2021/12/31 01:49:41;;;;;;;4.88;1.98;;;;;;;12.76;100.00;100873.84;5047065;28;20024;-58
2021/12/31 01:52:08;;;;;;;6.78;2.20;;;;;;;12.73;100.00;100869.59;5046695;28;20028;-58
2021/12/31 01:54:35;;;;;;;8.85;1.77;;;;;;;12.75;100.00;100878.25;5029212;28;20142;-58
2021/12/31 01:57:02;;;;;;;4.03;1.50;;;;;;;12.79;100.00;100871.06;5048117;28;20747;-58
2021/12/31 01:59:28;;;;;;;5.07;2.53;;;;;;;12.78;100.00;100878.09;5030313;28;20879;-58
2021/12/31 02:01:55;;;;;;;3.58;1.70;;;;;;;12.73;100.00;100880.13;5048007;28;20107;-58
2021/12/31 02:04:20;;;;;;;4.53;2.00;;;;;;;12.61;100.00;100858.78;5048860;28;20028;-58
2021/12/31 02:06:45;;;;;;;4.70;2.10;;;;;;;12.73;100.00;100879.28;5048307;28;20062;-58
2021/12/31 02:09:12;;;;;;;6.47;1.83;;;;;;;12.73;100.00;100881.91;5046309;28;20032;-57
2021/12/31 02:11:38;;;;;;;7.38;2.50;;;;;;;12.72;100.00;100874.94;5045887;28;20034;-58
2021/12/31 02:14:04;;;;;;;6.18;1.95;;;;;;;12.46;100.00;100841.16;5047731;28;20028;-58
2021/12/31 02:16:31;;;;;;;4.03;1.83;;;;;;;12.73;100.00;100884.56;5047981;28;20253;-58
2021/12/31 02:19:09;;;;;;;4.97;1.75;;;;;;;12.50;100.00;100855.88;5047542;28;20028;-58
2021/12/31 02:21:35;;;;;;;5.22;1.98;;;;;;;12.60;100.00;100860.63;5047673;28;20139;-58
2021/12/31 02:24:05;;;;;;;3.92;1.67;;;;;;;12.71;100.00;100881.13;5047995;28;20035;-58
2021/12/31 02:26:30;;;;;;;5.15;1.67;;;;;;;12.72;100.00;100872.28;5047523;28;20036;-58
2021/12/31 02:28:56;;;;;;;8.35;1.88;;;;;;;12.65;100.00;100865.63;5047167;28;20082;-59
2021/12/31 02:31:21;;;;;;;5.55;2.17;;;;;;;12.75;100.00;100869.50;5047227;28;20024;-57
2021/12/31 02:33:47;;;;;;;8.10;1.77;;;;;;;12.76;100.00;100871.22;5047133;28;20906;-57
2021/12/31 02:36:12;;;;;;;5.60;1.83;;;;;;;12.73;100.00;100864.31;5048009;28;20054;-57
2021/12/31 02:38:37;;;;;;;5.38;2.03;;;;;;;12.69;100.00;100878.59;5046272;28;20020;-58
2021/12/31 02:41:03;;;;;;;3.38;1.70;;;;;;;12.67;100.00;100863.78;5047577;28;20334;-58
2021/12/31 02:43:28;;;;;;;3.70;1.75;;;;;;;12.67;100.00;100855.88;5047026;28;20838;-57
2021/12/31 02:45:54;;;;;;;3.85;1.63;;;;;;;12.68;100.00;100860.19;5047167;28;20902;-58
2021/12/31 02:48:25;;;;;;;4.38;2.08;;;;;;;12.67;100.00;100861.16;5047655;28;20855;-57
2021/12/31 02:50:52;;;;;;;4.35;1.83;;;;;;;12.66;100.00;100862.94;5045287;28;20097;-57
2021/12/31 02:53:21;;;;;;;2.85;1.60;;;;;;;12.67;100.00;100859.34;5047075;28;20043;-57
2021/12/31 02:55:57;;;;;;;4.18;2.05;;;;;;;12.65;100.00;100863.00;5047065;28;20948;-57
2021/12/31 02:58:23;;;;;;;3.55;1.77;;;;;;;12.66;100.00;100857.66;5047150;28;20074;-57
2021/12/31 03:00:48;;;;;;;4.00;1.52;;;;;;;12.64;100.00;100853.41;5063820;28;20850;-57
2021/12/31 03:03:14;;;;;;;3.25;1.75;;;;;;;12.64;100.00;100854.22;5047280;28;20024;-57
2021/12/31 03:05:40;;;;;;;4.15;1.73;;;;;;;12.59;100.00;100855.41;5046553;28;20494;-57
2021/12/31 03:08:10;;;;;;;7.20;1.50;;;;;;;12.51;100.00;100862.84;5046640;28;20028;-57
2021/12/31 03:10:36;;;;;;;4.65;2.13;;;;;;;12.47;100.00;100853.41;5045004;28;20071;-57
2021/12/31 03:13:01;;;;;;;5.72;2.28;;;;;;;12.41;100.00;100848.41;5045162;28;20032;-57
2021/12/31 03:15:27;;;;;;;3.95;1.98;;;;;;;12.28;100.00;100841.13;5046825;28;20042;-57
2021/12/31 03:17:53;;;;;;;3.03;1.40;;;;;;;12.17;100.00;100845.22;5028483;28;20031;-57
2021/12/31 03:20:35;;;;;;;5.70;2.08;;;;;;;12.10;100.00;100835.94;5062827;28;20039;-57
2021/12/31 03:23:01;;;;;;;3.63;1.73;;;;;;;12.04;100.00;100842.34;5046283;28;20138;-57
2021/12/31 03:25:26;;;;;;;8.13;2.25;;;;;;;12.01;100.00;100834.59;5045504;28;20035;-57
2021/12/31 03:27:52;;;;;;;4.63;2.05;;;;;;;11.98;100.00;100834.75;5046825;28;20039;-57
2021/12/31 03:30:18;;;;;;;5.28;2.22;;;;;;;11.93;100.00;100834.09;5046510;28;20061;-58
2021/12/31 03:32:43;;;;;;;4.07;2.28;;;;;;;11.92;100.00;100831.56;5046709;28;20058;-57
2021/12/31 03:35:09;;;;;;;6.82;1.77;;;;;;;11.67;100.00;100805.53;5046529;28;20918;-57
2021/12/31 03:37:34;;;;;;;4.30;1.83;;;;;;;11.88;100.00;100832.63;5045973;28;20113;-57
2021/12/31 03:40:00;;;;;;;5.05;2.63;;;;;;;11.91;100.00;100840.38;5028857;28;20028;-57
2021/12/31 03:42:25;;;;;;;6.30;2.47;;;;;;;11.94;100.00;100838.47;5046422;28;20392;-57
2021/12/31 03:44:50;;;;;;;4.05;2.00;;;;;;;11.94;100.00;100843.72;5045051;28;20055;-58
2021/12/31 03:47:16;;;;;;;3.38;1.90;;;;;;;11.94;100.00;100841.09;5045799;28;20036;-57
2021/12/31 03:49:41;;;;;;;5.15;1.77;;;;;;;11.82;100.00;100819.78;5045252;28;20024;-57
2021/12/31 03:52:07;;;;;;;9.00;2.30;;;;;;;11.96;100.00;100833.13;5046380;28;20024;-57
2021/12/31 03:54:32;;;;;;;4.70;2.08;;;;;;;12.02;100.00;100838.94;5045129;28;20877;-57
2021/12/31 03:56:58;;;;;;;3.95;1.92;;;;;;;12.03;100.00;100840.63;5044849;28;20440;-58
2021/12/31 03:59:23;;;;;;;4.68;1.65;;;;;;;12.06;100.00;100837.88;5046174;28;20864;-59
2021/12/31 04:01:48;;;;;;;4.47;2.38;;;;;;;12.07;100.00;100841.34;5046105;28;20024;-58
2021/12/31 04:04:14;;;;;;;6.97;2.10;;;;;;;12.06;100.00;100835.25;5046116;28;21027;-58
2021/12/31 04:06:40;;;;;;;9.38;2.15;;;;;;;11.75;100.00;100787.63;5047246;28;20028;-58
2021/12/31 04:09:06;;;;;;;5.53;1.85;;;;;;;12.06;100.00;100832.59;5044870;28;20555;-58
2021/12/31 04:11:31;;;;;;;10.85;2.40;;;;;;;11.98;100.00;100816.31;5046445;28;20044;-58
2021/12/31 04:13:57;;;;;;;9.98;2.15;;;;;;;12.04;100.00;100821.28;5045545;28;20047;-58
2021/12/31 04:16:22;;;;;;;6.85;2.47;;;;;;;12.01;100.00;100826.69;5047333;28;20090;-58
2021/12/31 04:18:47;;;;;;;5.97;2.60;;;;;;;11.97;100.00;100821.66;5048776;28;20090;-58
2021/12/31 04:21:17;;;;;;;3.67;1.98;;;;;;;11.98;100.00;100821.59;5050365;28;20071;-58
2021/12/31 04:26:37;;;;;;;5.80;1.83;;;;;;;11.97;100.00;100825.13;5012422;28;20037;-58
2021/12/31 04:29:03;;;;;;;3.47;1.70;;;;;;;11.98;100.00;100826.00;5050677;28;20039;-58
2021/12/31 04:31:28;;;;;;;6.35;2.20;;;;;;;11.96;100.00;100823.44;5049817;28;20028;-58
2021/12/31 04:33:54;;;;;;;7.40;2.33;;;;;;;11.91;100.00;100829.84;5050193;28;20027;-58
2021/12/31 04:36:20;;;;;;;7.13;2.28;;;;;;;11.95;100.00;100831.41;5051033;28;21018;-58
2021/12/31 04:38:45;;;;;;;4.60;2.22;;;;;;;11.70;100.00;100789.59;5049766;28;20056;-58
2021/12/31 04:41:10;;;;;;;4.60;2.25;;;;;;;11.89;100.00;100824.69;5049916;28;20024;-58
2021/12/31 04:43:36;;;;;;;5.88;2.25;;;;;;;11.81;100.00;100818.06;5051523;28;20913;-58
2021/12/31 04:46:01;;;;;;;12.13;2.47;;;;;;;11.90;100.00;100829.00;5049685;28;20824;-58
2021/12/31 04:48:26;;;;;;;5.28;2.30;;;;;;;11.85;100.00;100815.22;5050126;28;20758;-58
2021/12/31 04:50:52;;;;;;;8.88;2.72;;;;;;;11.79;100.00;100815.53;5050417;28;20024;-58
2021/12/31 04:53:17;;;;;;;5.93;2.10;;;;;;;11.83;100.00;100826.75;5049771;28;20081;-58
2021/12/31 04:55:43;;;;;;;3.60;1.85;;;;;;;11.85;100.00;100831.00;5049493;28;20028;-58
2021/12/31 04:58:08;;;;;;;7.43;2.38;;;;;;;11.83;100.00;100830.22;5049317;28;20036;-58
2021/12/31 05:00:34;;;;;;;4.50;1.92;;;;;;;11.77;100.00;100827.88;5050060;28;20032;-58
2021/12/31 05:03:09;;;;;;;7.95;1.77;;;;;;;11.57;100.00;100818.28;5048333;28;20042;-58
2021/12/31 05:05:36;;;;;;;6.22;2.47;;;;;;;11.65;100.00;100838.97;5048145;28;20086;-58
2021/12/31 05:08:01;;;;;;;15.63;2.50;;;;;;;11.59;100.00;100839.28;5048110;28;20028;-58
2021/12/31 05:10:30;;;;;;;4.45;1.88;;;;;;;11.49;100.00;100833.56;5050223;28;20195;-58
2021/12/31 05:12:56;;;;;;;12.45;2.70;;;;;;;11.42;100.00;100836.59;5050408;28;20024;-58
2021/12/31 05:15:26;;;;;;;3.47;1.80;;;;;;;11.32;100.00;100833.53;5050271;28;20028;-58
2021/12/31 05:17:52;;;;;;;8.65;2.53;;;;;;;11.27;100.00;100836.38;5049688;28;20024;-58
2021/12/31 05:20:18;;;;;;;12.20;3.05;;;;;;;10.92;100.00;100776.63;5048217;28;20055;-58
2021/12/31 05:22:43;;;;;;;3.60;1.77;;;;;;;11.14;100.00;100831.72;5048685;28;20058;-58
2021/12/31 05:25:09;;;;;;;4.53;2.03;;;;;;;11.07;100.00;100833.78;5048836;28;21015;-58
2021/12/31 05:27:34;;;;;;;5.28;2.25;;;;;;;11.00;100.00;100834.97;5048409;28;20039;-58
2021/12/31 05:30:00;;;;;;;6.75;2.38;;;;;;;10.87;100.00;100820.69;5047632;28;20036;-58
2021/12/31 05:32:25;;;;;;;7.30;2.35;;;;;;;10.90;100.00;100823.16;5065129;28;20048;-58
2021/12/31 05:34:50;;;;;;;6.15;1.83;;;;;;;10.86;100.00;100821.59;5049131;28;20819;-58
2021/12/31 05:37:16;;;;;;;13.07;2.70;;;;;;;10.76;100.00;100805.38;5048469;28;20031;-58
2021/12/31 05:39:43;;;;;;;6.25;2.53;;;;;;;10.82;100.00;100825.28;5047489;28;20024;-58
2021/12/31 05:42:08;;;;;;;9.05;2.60;;;;;;;10.80;100.00;100819.25;5046307;28;20027;-58
2021/12/31 05:44:34;;;;;;;5.38;2.53;;;;;;;10.80;100.00;100815.75;5046991;28;20955;-58
2021/12/31 05:46:59;;;;;;;5.07;2.70;;;;;;;10.77;100.00;100807.09;5048591;28;20028;-58
2021/12/31 05:49:24;;;;;;;9.48;2.70;;;;;;;10.72;100.00;100808.19;5046743;28;20858;-58
2021/12/31 05:51:50;;;;;;;6.28;2.47;;;;;;;10.69;100.00;100797.81;5048402;28;20115;-58
2021/12/31 05:54:15;;;;;;;5.95;2.30;;;;;;;10.71;100.00;100796.00;5047393;28;20884;-59
2021/12/31 05:56:41;;;;;;;4.90;2.30;;;;;;;10.69;100.00;100801.31;5048377;28;20024;-58
2021/12/31 05:59:06;;;;;;;4.95;2.88;;;;;;;10.73;100.00;100807.28;5048853;28;20149;-58
2021/12/31 06:01:32;;;;;;;4.32;2.28;;;;;;;10.68;100.00;100794.34;5047292;28;20036;-58
2021/12/31 06:03:57;;;;;;;8.75;2.53;;;;;;;10.68;100.00;100806.63;5047989;28;20070;-58
2021/12/31 06:06:22;;;;;;;7.35;2.50;;;;;;;10.64;100.00;100805.94;5048488;28;20817;-58
2021/12/31 06:08:48;;;;;;;8.52;2.63;;;;;;;10.46;100.00;100776.97;5047737;28;20024;-58
2021/12/31 06:11:13;;;;;;;9.18;2.35;;;;;;;10.59;100.00;100797.38;5047579;28;20043;-58
2021/12/31 06:13:39;;;;;;;5.55;2.40;;;;;;;10.65;100.00;100804.13;5046684;28;20874;-58
2021/12/31 06:16:05;;;;;;;8.68;2.80;;;;;;;10.64;100.00;100786.69;5046217;28;20029;-58
2021/12/31 06:18:31;;;;;;;7.10;2.47;;;;;;;10.66;100.00;100787.47;5028343;28;20067;-58
2021/12/31 06:20:56;;;;;;;6.05;2.70;;;;;;;10.62;100.00;100780.63;5046649;28;20090;-58
2021/12/31 06:23:21;;;;;;;5.63;2.22;;;;;;;10.54;100.00;100793.25;5046982;28;20549;-59
2021/12/31 06:25:47;;;;;;;4.45;2.17;;;;;;;10.49;100.00;100769.81;5048255;28;20035;-58
2021/12/31 06:28:12;;;;;;;7.95;2.58;;;;;;;10.59;100.00;100786.00;5046462;28;20944;-58
2021/12/31 06:30:38;;;;;;;4.15;2.03;;;;;;;10.55;100.00;100795.81;5046113;28;20063;-58
2021/12/31 06:33:03;;;;;;;5.03;2.72;;;;;;;10.48;100.00;100777.75;5047433;28;20045;-58
2021/12/31 06:35:29;;;;;;;5.97;2.83;;;;;;;10.42;100.00;100775.38;5048559;28;20042;-59
2021/12/31 06:37:56;;;;;;;8.05;2.33;;;;;;;10.13;100.00;100739.84;5045776;28;20039;-58
2021/12/31 06:40:22;;;;;;;9.65;1.98;;;;;;;10.31;100.00;100777.66;5045250;28;20032;-58
2021/12/31 06:42:48;;;;;;;3.55;2.10;;;;;;;10.33;100.00;100768.78;5047164;28;20940;-58
2021/12/31 06:45:13;;;;;;;4.07;2.17;;;;;;;10.32;100.00;100777.56;5048163;28;20123;-58
2021/12/31 06:47:39;;;;;;;4.28;2.53;;;;;;;10.30;100.00;100781.19;5046403;28;20861;-58
2021/12/31 06:50:04;;;;;;;7.50;2.83;;;;;;;10.30;100.00;100776.78;5046833;28;20019;-58
2021/12/31 06:52:30;;;;;;;7.95;2.40;;;;;;;10.34;100.00;100774.88;5045025;28;20032;-58
2021/12/31 06:54:55;;;;;;;6.00;2.55;;;;;;;10.37;100.00;100775.59;5045541;28;20032;-58
2021/12/31 06:57:21;;;;;;;6.20;2.60;;;;;;;10.34;100.00;100775.75;5047192;28;20898;-58
2021/12/31 06:59:46;;;;;;;4.65;2.20;;;;;;;10.36;100.00;100768.63;5046464;28;20936;-59
2021/12/31 07:02:12;;;;;;;6.68;2.28;;;;;;;10.38;100.00;100776.44;5044931;28;20116;-59
2021/12/31 07:04:37;;;;;;;3.40;2.05;;;;;;;10.38;100.00;100787.78;5045084;28;20035;-58
2021/12/31 07:07:03;;;;;;;5.57;2.00;;;;;;;10.25;100.00;100765.59;5046896;28;20924;-58
2021/12/31 07:09:28;;;;;;;4.15;2.20;;;;;;;10.32;100.00;100777.56;5047234;28;20035;-58
2021/12/31 07:11:53;;;;;;;6.10;2.15;;;;;;;10.29;100.00;100787.34;5046560;28;20028;-58
2021/12/31 07:14:19;;;;;;;4.30;2.47;;;;;;;10.31;100.00;100796.03;5045225;28;20895;-58
2021/12/31 07:16:44;;;;;;;5.78;2.33;;;;;;;10.30;100.00;100796.94;5046048;28;20127;-58
2021/12/31 07:19:10;;;;;;;4.65;2.15;;;;;;;10.25;100.00;100782.22;5046806;28;20809;-58
2021/12/31 07:21:35;;;;;;;2.92;1.90;;;;;;;10.30;100.00;100802.19;5045422;28;20096;-58
2021/12/31 07:24:01;;;;;;;3.30;1.83;;;;;;;10.24;100.00;100801.53;5045614;28;20032;-58
2021/12/31 07:26:26;;;;;;;5.50;2.78;;;;;;;10.29;100.00;100792.59;5046658;28;20089;-58
2021/12/31 07:28:51;;;;;;;4.72;2.70;;;;;;;10.25;100.00;100792.72;5046608;28;20024;-58
2021/12/31 07:31:17;;;;;;;4.47;2.28;;;;;;;10.25;100.00;100790.09;5046129;28;20032;-58
2021/12/31 07:33:42;;;;;;;4.97;2.67;;;;;;;10.21;100.00;100798.16;5045243;28;20759;-58
2021/12/31 07:36:08;;;;;;;4.65;2.58;;;;;;;10.20;100.00;100792.09;5045673;28;20056;-58
2021/12/31 07:38:36;;;;;;;4.35;2.53;;;;;;;10.26;100.00;100801.47;5046358;28;20020;-58
2021/12/31 07:41:02;;;;;;;5.75;2.03;;;;;;;10.23;100.00;100797.22;5029012;28;20024;-58
2021/12/31 07:43:28;;;;;;;5.68;2.00;;;;;;;10.24;100.00;100805.91;5044672;28;20139;-59
2021/12/31 07:45:54;;;;;;;6.80;2.88;;;;;;;10.29;100.00;100808.34;5044984;28;20028;-58
2021/12/31 07:48:20;;;;;;;2.95;1.75;;;;;;;10.30;100.00;100812.69;5044678;28;20035;-58
2021/12/31 07:50:46;;;;;;;6.63;2.88;;;;;;;10.35;100.00;100813.34;5047857;28;20031;-58
2021/12/31 07:53:12;;;;;;;3.92;2.22;;;;;;;10.05;100.00;100763.81;5050673;28;20024;-58
2021/12/31 07:55:37;;;;;;;3.70;1.85;;;;;;;10.37;100.00;100811.53;5031492;28;20471;-58
2021/12/31 07:58:05;;;;;;;6.20;2.80;;;;;;;10.50;100.00;100823.22;5047640;28;20024;-58
2021/12/31 08:00:30;;;;;;;3.63;1.92;;;;;;;10.49;100.00;100829.38;5049277;28;20035;-58
2021/12/31 08:02:56;;;;;;;11.82;2.40;;;;;;;10.52;100.00;100829.25;5049768;28;20032;-58
2021/12/31 08:05:23;;;;;;;4.65;2.33;;;;;;;10.53;100.00;100826.56;5051291;28;20035;-59
2021/12/31 08:07:49;;;;;;;3.90;2.15;;;;;;;10.52;100.00;100826.63;5050663;28;20082;-58
2021/12/31 08:10:14;;;;;;;3.33;1.83;;;;;;;10.45;100.00;100814.66;5051343;28;20024;-58
2021/12/31 08:12:39;;;;;;;4.32;2.25;;;;;;;10.44;100.00;100819.09;5051710;28;20040;-58
2021/12/31 08:15:05;;;;;;;6.22;2.17;;;;;;;10.43;100.00;100816.50;5051224;28;20024;-58
2021/12/31 08:17:31;;;;;;;4.38;1.70;;;;;;;10.36;100.00;100804.56;5051012;28;20032;-58
2021/12/31 08:19:56;;;;;;;6.65;2.72;;;;;;;10.42;100.00;100828.78;5051268;28;20039;-58
2021/12/31 08:22:22;;;;;;;3.13;1.65;;;;;;;10.30;100.00;100820.56;5050709;28;20090;-58
2021/12/31 08:24:47;;;;;;;3.60;2.10;;;;;;;10.41;100.00;100828.88;5051056;28;20085;-58
2021/12/31 08:27:13;;;;;;;12.25;1.77;;;;;;;10.47;100.00;100836.47;5050633;28;20056;-59
2021/12/31 08:29:38;;;;;;;3.88;1.80;;;;;;;10.53;100.00;100838.84;5050400;28;20087;-58
2021/12/31 08:32:04;;;;;;;2.78;1.50;;;;;;;10.51;100.00;100841.53;5050672;28;20059;-58
2021/12/31 08:34:29;;;;;;;7.88;2.30;;;;;;;10.48;100.00;100832.91;5050718;28;20036;-58
2021/12/31 08:36:55;;;;;;;3.17;1.70;;;;;;;10.55;100.00;100864.13;5050362;28;20122;-58
2021/12/31 08:39:20;;;;;;;5.57;1.80;;;;;;;10.60;100.00;100856.06;5050667;28;20032;-58
2021/12/31 08:41:46;;;;;;;8.02;2.20;;;;;;;10.62;100.00;100865.56;5050296;28;20040;-58
2021/12/31 08:44:11;;;;;;;5.35;1.83;;;;;;;10.66;100.00;100863.66;5049694;28;20078;-58
2021/12/31 08:46:37;;;;;;;3.92;2.03;;;;;;;10.71;100.00;100861.72;5050159;28;20226;-58
2021/12/31 08:49:03;;;;;;;8.35;1.90;;;;;;;10.83;100.00;100874.31;5064862;28;20089;-58
2021/12/31 08:51:28;;;;;;;6.78;1.60;;;;;;;10.89;100.00;100868.78;5065828;28;20028;-58
2021/12/31 08:53:54;;;;;;;6.38;2.20;;;;;;;10.97;100.00;100866.69;5049174;28;20028;-58
2021/12/31 08:56:20;;;;;;;4.05;1.65;;;;;;;10.96;100.00;100843.91;5049106;28;20088;-58
2021/12/31 08:58:46;;;;;;;4.38;2.03;;;;;;;11.08;100.00;100837.28;5048744;28;20027;-58
2021/12/31 09:01:11;;;;;;;3.55;1.80;;;;;;;11.12;100.00;100834.41;5048719;28;20028;-58
2021/12/31 09:03:36;;;;;;;3.50;1.45;;;;;;;11.14;100.00;100837.84;5046685;28;20028;-58
2021/12/31 09:06:02;;;;;;;4.05;1.95;;;;;;;11.16;100.00;100845.66;5048353;28;20893;-59
2021/12/31 09:08:28;;;;;;;5.35;1.90;;;;;;;11.21;100.00;100846.31;5048191;28;20139;-58
2021/12/31 09:10:53;;;;;;;4.28;1.83;;;;;;;11.21;100.00;100838.41;5031133;28;20201;-58
2021/12/31 09:13:19;;;;;;;3.30;1.67;;;;;;;11.21;100.00;100843.69;5048395;28;20070;-59
2021/12/31 09:15:44;;;;;;;4.18;1.65;;;;;;;11.21;100.00;100827.91;5048003;28;20028;-58
2021/12/31 09:18:10;;;;;;;3.70;1.73;;;;;;;11.22;100.00;100819.91;5030333;28;20836;-59
2021/12/31 09:20:35;;;;;;;4.38;2.00;;;;;;;11.25;100.00;100814.50;5049638;28;20020;-58
2021/12/31 09:23:02;;;;;;;3.78;1.42;;;;;;;11.29;100.00;100804.69;5049194;28;20887;-57
2021/12/31 09:25:28;;;;;;;4.57;1.58;;;;;;;11.29;100.00;100816.09;5047949;28;20501;-57
2021/12/31 09:27:53;;;;;;;2.92;1.65;;;;;;;11.32;100.00;100795.84;5049224;28;20031;-57
2021/12/31 09:30:18;;;;;;;3.05;1.38;;;;;;;11.34;100.00;100799.25;5046642;28;20897;-58
2021/12/31 09:32:44;;;;;;;3.80;1.73;;;;;;;11.36;100.00;100798.22;5048477;28;20024;-57
2021/12/31 09:35:10;;;;;;;3.13;1.70;;;;;;;11.42;100.00;100815.53;5049192;28;20051;-57
2021/12/31 09:37:36;;;;;;;3.55;1.50;;;;;;;11.43;100.00;100812.81;5049547;28;20977;-57
2021/12/31 09:40:01;;;;;;;3.15;1.58;;;;;;;11.47;100.00;100808.25;5049592;28;20081;-57
2021/12/31 09:42:27;;;;;;;5.75;1.55;;;;;;;11.51;100.00;100812.47;5048961;28;20081;-57
2021/12/31 09:44:52;;;;;;;2.47;1.50;;;;;;;11.57;100.00;100820.06;5048684;28;20090;-57
2021/12/31 09:47:18;;;;;;;6.18;1.95;;;;;;;11.60;100.00;100838.34;5046878;28;20041;-57
2021/12/31 09:49:45;;;;;;;2.72;1.48;;;;;;;11.64;100.00;100853.06;5046628;28;20814;-58
2021/12/31 09:52:13;;;;;;;5.40;1.70;;;;;;;11.66;100.00;100856.50;5046169;28;20229;-57
2021/12/31 09:54:46;;;;;;;4.55;1.50;;;;;;;11.66;100.00;100870.47;5046696;28;20158;-57
2021/12/31 09:57:19;;;;;;;3.35;1.73;;;;;;;11.69;100.00;100872.97;5048467;28;20081;-57
2021/12/31 09:59:46;;;;;;;2.42;1.23;;;;;;;11.71;100.00;100883.47;5049370;28;20927;-57
2021/12/31 10:02:12;;;;;;;5.78;1.50;;;;;;;11.71;100.00;100896.63;5047791;28;20027;-58
2021/12/31 10:05:09;;;;;;;3.80;1.50;;;;;;;11.72;100.00;100888.69;5045984;28;20032;-57
2021/12/31 10:07:42;;;;;;;4.05;1.27;;;;;;;11.80;100.00;100896.19;5003563;28;20175;-57
2021/12/31 10:10:15;;;;;;;3.35;1.33;;;;;;;11.85;100.00;100890.72;5030280;28;20084;-58
2021/12/31 10:12:51;;;;;;;2.70;1.35;;;;;;;11.92;100.00;100884.25;5046897;28;20035;-58
2021/12/31 10:15:19;;;;;;;2.22;1.10;;;;;;;11.97;100.00;100882.22;5044256;28;20024;-57
2021/12/31 10:17:45;;;;;;;3.47;1.60;;;;;;;12.00;100.00;100864.50;5047163;28;20034;-57
2021/12/31 10:20:11;;;;;;;5.60;2.00;;;;;;;12.09;100.00;100865.84;5045878;28;20133;-57
2021/12/31 10:22:36;;;;;;;3.20;1.60;;;;;;;12.15;100.00;100866.41;5045254;28;20840;-57
2021/12/31 10:25:15;;;;;;;3.47;1.63;;;;;;;12.18;100.00;100876.78;5047487;28;20027;-58
2021/12/31 10:27:41;;;;;;;3.17;1.63;;;;;;;12.13;100.00;100875.31;5047376;28;20139;-57
2021/12/31 10:30:07;;;;;;;4.75;1.45;;;;;;;12.06;100.00;100856.31;5045581;28;20032;-57
2021/12/31 10:32:35;;;;;;;1.77;0.88;;;;;;;12.02;100.00;100848.63;5045248;28;20035;-57
2021/12/31 10:35:19;;;;;;;2.88;1.42;;;;;;;11.96;100.00;100841.88;5045358;28;20915;-58
2021/12/31 10:37:57;;;;;;;2.37;1.23;;;;;;;11.92;100.00;100852.63;5045586;28;20036;-57
2021/12/31 10:40:29;;;;;;;2.50;1.13;;;;;;;11.90;100.00;100871.13;5044515;28;20028;-58
2021/12/31 10:43:15;;;;;;;3.33;1.73;;;;;;;11.92;100.00;100874.56;5026601;28;20027;-58
2021/12/31 10:45:57;;;;;;;3.00;1.33;;;;;;;11.88;100.00;100857.19;5044992;28;20287;-58
2021/12/31 10:48:37;;;;;;;4.78;1.88;;;;;;;11.93;100.00;100822.75;5044916;28;20036;-58
2021/12/31 10:51:02;;;;;;;2.70;1.25;;;;;;;12.00;100.00;100840.78;5046455;28;20061;-58
2021/12/31 10:53:33;;;;;;;2.53;1.27;;;;;;;12.10;100.00;100847.31;5060911;28;20028;-58
2021/12/31 10:56:07;;;;;;;4.30;1.27;;;;;;;12.18;100.00;100850.44;5045577;28;20028;-58
2021/12/31 10:58:33;;;;;;;3.33;1.40;;;;;;;12.17;100.00;100838.19;5046451;28;20047;-58
2021/12/31 11:00:59;;;;;;;8.95;3.22;;;;;;;12.18;100.00;100854.84;5047040;28;20041;-58
2021/12/31 11:03:25;;;;;;;4.28;2.50;;;;;;;11.75;100.00;100771.84;5044811;28;20032;-58
2021/12/31 11:05:52;;;;;;;3.78;2.22;;;;;;;12.19;100.00;100853.94;5046245;28;20815;-58
2021/12/31 11:08:18;;;;;;;3.45;2.10;;;;;;;12.02;100.00;100811.75;5062734;28;20033;-58
2021/12/31 11:10:44;;;;;;;4.10;1.35;;;;;;;12.19;100.00;100831.06;5060991;28;20900;-58
2021/12/31 11:13:17;;;;;;;3.17;1.50;;;;;;;12.21;100.00;100837.09;5047396;28;20027;-58
2021/12/31 11:15:44;;;;;;;10.95;1.90;;;;;;;12.20;100.00;100843.28;5046838;28;20043;-58
2021/12/31 11:18:11;;;;;;;3.38;1.77;;;;;;;12.14;100.00;100843.59;5044826;28;20028;-58
2021/12/31 11:20:37;;;;;;;2.85;1.42;;;;;;;12.16;100.00;100836.50;5047020;28;20020;-58